createdAt,value
2023-05-01T00:01:31.602Z,100331.09
2023-05-01T00:04:09.642Z,100333.44
2023-05-01T00:06:40.791Z,100333.66
2023-05-01T00:09:12.835Z,100332.13
2023-05-01T00:12:03.408Z,100329.77
2023-05-01T00:14:52.117Z,100327.87
2023-05-01T00:17:31.380Z,100322.88
2023-05-01T00:20:05.480Z,100319.20
2023-05-01T00:22:39.344Z,100320.25
2023-05-01T00:25:08.282Z,100314.47
2023-05-01T00:28:02.146Z,100313.66
2023-05-01T00:30:30.720Z,100307.23
2023-05-01T00:33:04.552Z,100303.23
2023-05-01T00:35:33.117Z,100299.23
2023-05-01T00:38:12.221Z,100300.13
2023-05-01T00:41:01.156Z,100296.19
2023-05-01T00:43:29.758Z,100294.90
2023-05-01T00:45:58.455Z,100293.30
2023-05-01T00:48:27.541Z,100294.21
2023-05-01T00:51:04.237Z,100293.20
2023-05-01T00:53:52.373Z,100289.80
2023-05-01T00:56:23.595Z,100289.33
2023-05-01T00:59:31.561Z,100288.02
2023-05-01T01:02:03.377Z,100288.79
2023-05-01T01:04:36.236Z,100287.67
2023-05-01T01:07:31.889Z,100284.94
2023-05-01T01:10:30.430Z,100284.16
2023-05-01T01:13:44.310Z,100285.51
2023-05-01T01:17:04.848Z,100288.31
2023-05-01T01:20:23.556Z,100286.98
2023-05-01T01:23:15.998Z,100287.53
2023-05-01T01:26:14.567Z,100287.21
2023-05-01T01:29:42.184Z,100286.70
2023-05-01T01:32:49.091Z,100283.38
2023-05-01T01:35:29.961Z,100281.90
2023-05-01T01:38:30.889Z,100280.90
2023-05-01T01:41:24.179Z,100276.42
2023-05-01T01:44:03.243Z,100279.98
2023-05-01T01:47:07.966Z,100273.64
2023-05-01T01:49:58.965Z,100267.50
2023-05-01T01:52:34.561Z,100264.95
2023-05-01T01:55:09.065Z,100262.80
2023-05-01T01:57:45.119Z,100261.72
2023-05-01T02:00:19.066Z,100262.48
2023-05-01T02:02:52.786Z,100261.31
2023-05-01T02:05:22.055Z,100266.42
2023-05-01T02:07:56.690Z,100265.31
2023-05-01T02:10:37.265Z,100265.21
2023-05-01T02:13:17.673Z,100263.85
2023-05-01T02:15:49.851Z,100264.06
2023-05-01T02:18:44.406Z,100267.79
2023-05-01T02:21:22.958Z,100270.48
2023-05-01T02:24:24.653Z,100266.05
2023-05-01T02:27:08.823Z,100263.83
2023-05-01T02:29:43.494Z,100267.35
2023-05-01T02:32:37.295Z,100262.92
2023-05-01T02:35:14.518Z,100258.30
2023-05-01T02:38:03.629Z,100256.08
2023-05-01T02:40:34.537Z,100250.98
2023-05-01T02:43:07.249Z,100242.37
2023-05-01T02:45:42.721Z,100243.60
2023-05-01T02:48:34.017Z,100245.31
2023-05-01T02:51:18.824Z,100244.42
2023-05-01T02:53:47.757Z,100241.26
2023-05-01T02:56:45.357Z,100239.05
2023-05-01T02:59:35.756Z,100237.34
2023-05-01T03:02:27.542Z,100233.48
2023-05-01T03:04:58.076Z,100231.75
2023-05-01T03:07:46.872Z,100231.91
2023-05-01T03:10:43.450Z,100231.06
2023-05-01T03:13:14.969Z,100232.48
2023-05-01T03:16:22.278Z,100232.16
2023-05-01T03:19:43.935Z,100227.45
2023-05-01T03:22:19.608Z,100227.09
2023-05-01T03:24:53.267Z,100227.80
2023-05-01T03:27:55.066Z,100223.63
2023-05-01T03:30:42.584Z,100220.64
2023-05-01T03:33:21.091Z,100222.90
2023-05-01T03:35:49.669Z,100219.98
2023-05-01T03:38:29.698Z,100217.39
2023-05-01T03:41:00.480Z,100220.86
2023-05-01T03:43:29.245Z,100216.50
2023-05-01T03:46:10.730Z,100218.03
2023-05-01T03:49:07.215Z,100218.54
2023-05-01T03:51:43.993Z,100215.55
2023-05-01T03:54:37.301Z,100211.89
2023-05-01T03:57:07.482Z,100209.30
2023-05-01T04:00:03.383Z,100206.53
2023-05-01T04:02:36.332Z,100206.45
2023-05-01T04:05:10.385Z,100201.94
2023-05-01T04:07:59.011Z,100201.48
2023-05-01T04:10:30.183Z,100199.25
2023-05-01T04:13:00.071Z,100196.32
2023-05-01T04:15:28.884Z,100193.55
2023-05-01T04:18:41.980Z,100193.55
2023-05-01T04:21:24.807Z,100191.41
2023-05-01T04:23:55.869Z,100188.42
2023-05-01T04:26:24.379Z,100186.77
2023-05-01T04:28:53.253Z,100189.49
2023-05-01T04:31:21.968Z,100186.30
2023-05-01T04:34:41.075Z,100179.44
2023-05-01T04:37:12.986Z,100179.80
2023-05-01T04:39:44.953Z,100178.63
2023-05-01T04:42:33.521Z,100175.63
2023-05-01T04:45:28.428Z,100173.42
2023-05-01T04:48:14.516Z,100177.26
2023-05-01T04:50:49.354Z,100174.96
2023-05-01T04:53:39.706Z,100179.26
2023-05-01T04:56:11.602Z,100178.86
2023-05-01T04:59:08.500Z,100171.98
2023-05-01T05:01:36.867Z,100174.35
2023-05-01T05:04:08.195Z,100169.92
2023-05-01T05:06:36.836Z,100167.05
2023-05-01T05:09:07.961Z,100164.67
2023-05-01T05:11:59.713Z,100162.38
2023-05-01T05:14:51.135Z,100163.95
2023-05-01T05:17:29.874Z,100164.81
2023-05-01T05:20:05.984Z,100163.77
2023-05-01T05:22:50.286Z,100166.98
2023-05-01T05:25:18.844Z,100164.66
2023-05-01T05:27:53.112Z,100162.05
2023-05-01T05:30:52.518Z,100156.84
2023-05-01T05:33:32.852Z,100149.07
2023-05-01T05:36:19.094Z,100151.63
2023-05-01T05:38:47.463Z,100144.91
2023-05-01T05:41:17.848Z,100146.38
2023-05-01T05:43:55.173Z,100143.91
2023-05-01T05:46:23.761Z,100143.64
2023-05-01T05:49:32.877Z,100142.66
2023-05-01T05:52:27.740Z,100139.67
2023-05-01T05:54:56.426Z,100141.03
2023-05-01T05:57:25.002Z,100136.59
2023-05-01T06:00:09.717Z,100135.70
2023-05-01T06:02:59.354Z,100138.91
2023-05-01T06:05:40.935Z,100137.01
2023-05-01T06:08:14.182Z,100139.79
2023-05-01T06:11:15.486Z,100140.15
2023-05-01T06:13:47.316Z,100143.90
2023-05-01T06:16:18.305Z,100135.42
2023-05-01T06:18:47.084Z,100130.69
2023-05-01T06:21:18.550Z,100135.23
2023-05-01T06:23:49.887Z,100133.02
2023-05-01T06:26:21.847Z,100132.95
2023-05-01T06:28:55.941Z,100135.83
2023-05-01T06:31:41.725Z,100132.50
2023-05-01T06:34:10.799Z,100127.39
2023-05-01T06:36:59.426Z,100130.21
2023-05-01T06:39:48.376Z,100129.13
2023-05-01T06:42:21.773Z,100130.52
2023-05-01T06:45:10.824Z,100125.30
2023-05-01T06:47:56.093Z,100123.12
2023-05-01T06:50:40.745Z,100123.55
2023-05-01T06:53:13.430Z,100125.29
2023-05-01T06:55:50.979Z,100119.25
2023-05-01T06:58:24.159Z,100119.77
2023-05-01T07:01:07.776Z,100114.48
2023-05-01T07:03:39.522Z,100108.96
2023-05-01T07:06:31.625Z,100109.51
2023-05-01T07:09:03.586Z,100109.34
2023-05-01T07:11:52.538Z,100102.68
2023-05-01T07:14:21.135Z,100095.20
2023-05-01T07:17:03.934Z,100095.41
2023-05-01T07:19:56.166Z,100096.92
2023-05-01T07:23:07.450Z,100096.38
2023-05-01T07:25:45.718Z,100094.80
2023-05-01T07:28:15.342Z,100092.94
2023-05-01T07:30:44.448Z,100091.38
2023-05-01T07:33:12.912Z,100094.02
2023-05-01T07:35:52.567Z,100094.45
2023-05-01T07:38:24.312Z,100094.71
2023-05-01T07:40:58.664Z,100095.98
2023-05-01T07:43:27.034Z,100094.24
2023-05-01T07:46:15.994Z,100097.69
2023-05-01T07:49:06.154Z,100091.71
2023-05-01T07:51:40.615Z,100094.06
2023-05-01T07:54:26.543Z,100091.61
2023-05-01T07:56:57.694Z,100082.16
2023-05-01T07:59:26.383Z,100076.71
2023-05-01T08:02:17.515Z,100077.55
2023-05-01T08:05:07.056Z,100071.64
2023-05-01T08:07:38.279Z,100069.16
2023-05-01T08:10:36.203Z,100063.67
2023-05-01T08:13:09.429Z,100063.67
2023-05-01T08:16:22.036Z,100058.25
2023-05-01T08:18:54.086Z,100052.63
2023-05-01T08:21:32.175Z,100051.63
2023-05-01T08:24:01.862Z,100055.80
2023-05-01T08:26:45.381Z,100052.56
2023-05-01T08:29:16.188Z,100053.77
2023-05-01T08:32:05.090Z,100047.77
2023-05-01T08:34:33.686Z,100042.58
2023-05-01T08:37:07.986Z,100043.48
2023-05-01T08:39:36.451Z,100041.63
2023-05-01T08:42:05.481Z,100044.56
2023-05-01T08:44:51.500Z,100040.67
2023-05-01T08:47:20.216Z,100044.14
2023-05-01T08:50:01.953Z,100043.23
2023-05-01T08:52:34.504Z,100041.27
2023-05-01T08:55:12.462Z,100035.04
2023-05-01T08:57:51.537Z,100036.86
2023-05-01T09:00:22.028Z,100031.59
2023-05-01T09:02:53.646Z,100025.46
2023-05-01T09:05:22.102Z,100026.45
2023-05-01T09:07:53.334Z,100024.48
2023-05-01T09:10:27.596Z,100026.69
2023-05-01T09:13:11.475Z,100019.96
2023-05-01T09:15:50.379Z,100023.20
2023-05-01T09:18:27.846Z,100021.26
2023-05-01T09:21:18.865Z,100002.89
2023-05-01T09:23:59.102Z,100004.67
2023-05-01T09:27:03.800Z,99999.08
2023-05-01T09:29:48.600Z,99996.14
2023-05-01T09:32:28.589Z,100000.86
2023-05-01T09:35:14.368Z,99991.30
2023-05-01T09:37:59.101Z,99986.20
2023-05-01T09:40:28.246Z,99987.56
2023-05-01T09:43:00.248Z,99987.23
2023-05-01T09:45:59.836Z,99987.23
2023-05-01T09:48:36.068Z,99983.52
2023-05-01T09:51:46.281Z,99972.47
2023-05-01T09:54:27.418Z,99970.95
2023-05-01T09:56:57.743Z,99961.89
2023-05-01T09:59:31.362Z,99961.54
2023-05-01T10:01:59.942Z,99964.09
2023-05-01T10:04:33.885Z,99959.95
2023-05-01T10:07:14.732Z,99961.57
2023-05-01T10:10:06.846Z,99954.80
2023-05-01T10:12:38.717Z,99950.10
2023-05-01T10:15:42.473Z,99952.07
2023-05-01T10:18:14.844Z,99954.09
2023-05-01T10:20:49.571Z,99957.69
2023-05-01T10:23:18.598Z,99952.73
2023-05-01T10:25:50.193Z,99942.71
2023-05-01T10:28:25.376Z,99938.34
2023-05-01T10:30:55.168Z,99930.31
2023-05-01T10:33:24.994Z,99928.53
2023-05-01T10:35:58.238Z,99917.31
2023-05-01T10:38:34.228Z,99911.83
2023-05-01T10:41:02.913Z,99909.41
2023-05-01T10:43:41.100Z,99907.02
2023-05-01T10:46:27.128Z,99901.66
2023-05-01T10:48:56.566Z,99896.02
2023-05-01T10:51:28.341Z,99896.29
2023-05-01T10:54:22.377Z,99884.34
2023-05-01T10:56:53.773Z,99877.42
2023-05-01T10:59:23.866Z,99879.83
2023-05-01T11:02:12.689Z,99886.46
2023-05-01T11:04:53.619Z,99879.42
2023-05-01T11:07:27.206Z,99877.84
2023-05-01T11:09:59.303Z,99870.08
2023-05-01T11:12:46.207Z,99865.36
2023-05-01T11:15:29.532Z,99861.50
2023-05-01T11:17:59.935Z,99854.31
2023-05-01T11:20:31.739Z,99848.54
2023-05-01T11:23:00.848Z,99847.08
2023-05-01T11:25:33.371Z,99844.55
2023-05-01T11:28:22.014Z,99845.91
2023-05-01T11:30:51.499Z,99844.75
2023-05-01T11:33:31.519Z,99836.09
2023-05-01T11:36:01.335Z,99835.15
2023-05-01T11:38:40.065Z,99826.54
2023-05-01T11:41:08.725Z,99827.66
2023-05-01T11:43:49.922Z,99822.22
2023-05-01T11:46:44.877Z,99822.29
2023-05-01T11:49:31.642Z,99819.13
2023-05-01T11:52:02.543Z,99809.83
2023-05-01T11:54:40.340Z,99810.00
2023-05-01T11:57:09.202Z,99802.67
2023-05-01T11:59:39.987Z,99805.80
2023-05-01T12:02:18.302Z,99794.23
2023-05-01T12:04:59.743Z,99784.60
2023-05-01T12:07:31.294Z,99782.67
2023-05-01T12:10:00.257Z,99780.54
2023-05-01T12:12:33.718Z,99780.04
2023-05-01T12:15:05.933Z,99774.27
2023-05-01T12:17:35.037Z,99774.80
2023-05-01T12:20:06.618Z,99776.50
2023-05-01T12:23:05.906Z,99768.09
2023-05-01T12:25:35.315Z,99770.48
2023-05-01T12:28:32.658Z,99767.37
2023-05-01T12:31:11.044Z,99761.19
2023-05-01T12:33:53.765Z,99755.39
2023-05-01T12:36:25.898Z,99750.74
2023-05-01T12:39:45.005Z,99749.23
2023-05-01T12:42:18.134Z,99741.23
2023-05-01T12:45:18.233Z,99736.31
2023-05-01T12:47:49.719Z,99729.59
2023-05-01T12:50:22.946Z,99712.92
2023-05-01T12:52:56.381Z,99720.67
2023-05-01T12:55:46.832Z,99724.62
2023-05-01T12:58:16.714Z,99713.88
2023-05-01T13:00:47.776Z,99710.05
2023-05-01T13:03:25.521Z,99707.34
2023-05-01T13:06:21.047Z,99703.07
2023-05-01T13:08:53.071Z,99703.00
2023-05-01T13:11:24.000Z,99700.02
2023-05-01T13:13:55.438Z,99700.02
2023-05-01T13:16:26.526Z,99694.61
2023-05-01T13:19:07.661Z,99696.69
2023-05-01T13:21:50.483Z,99692.23
2023-05-01T13:24:38.761Z,99683.99
2023-05-01T13:27:11.973Z,99680.06
2023-05-01T13:29:46.444Z,99675.79
2023-05-01T13:32:32.336Z,99677.19
2023-05-01T13:35:04.507Z,99672.98
2023-05-01T13:37:42.662Z,99666.78
2023-05-01T13:40:34.570Z,99662.69
2023-05-01T13:43:14.089Z,99650.23
2023-05-01T13:45:58.016Z,99642.14
2023-05-01T13:48:27.205Z,99644.04
2023-05-01T13:50:55.669Z,99642.41
2023-05-01T13:53:24.390Z,99643.34
2023-05-01T13:55:52.661Z,99636.17
2023-05-01T13:58:42.891Z,99632.54
2023-05-01T14:01:32.082Z,99632.41
2023-05-01T14:04:04.465Z,99629.36
2023-05-01T14:06:39.277Z,99625.82
2023-05-01T14:09:22.069Z,99626.15
2023-05-01T14:11:51.935Z,99616.56
2023-05-01T14:14:20.677Z,99613.71
2023-05-01T14:16:55.657Z,99606.33
2023-05-01T14:19:24.633Z,99611.60
2023-05-01T14:21:53.783Z,99614.14
2023-05-01T14:24:31.132Z,99609.40
2023-05-01T14:26:59.945Z,99610.52
2023-05-01T14:29:31.857Z,99608.52
2023-05-01T14:32:18.079Z,99604.02
2023-05-01T14:34:46.628Z,99602.27
2023-05-01T14:37:18.715Z,99591.50
2023-05-01T14:39:47.221Z,99594.02
2023-05-01T14:42:18.770Z,99590.09
2023-05-01T14:44:49.885Z,99585.06
2023-05-01T14:47:22.135Z,99579.03
2023-05-01T14:49:54.436Z,99576.51
2023-05-01T14:52:33.365Z,99576.48
2023-05-01T14:55:01.977Z,99576.92
2023-05-01T14:57:30.586Z,99579.69
2023-05-01T15:00:05.752Z,99581.66
2023-05-01T15:02:34.560Z,99574.70
2023-05-01T15:05:03.680Z,99574.25
2023-05-01T15:07:56.885Z,99572.92
2023-05-01T15:10:29.294Z,99569.09
2023-05-01T15:13:09.364Z,99564.05
2023-05-01T15:15:40.948Z,99569.86
2023-05-01T15:18:09.373Z,99564.34
2023-05-01T15:20:38.764Z,99559.80
2023-05-01T15:23:13.360Z,99560.02
2023-05-01T15:25:45.061Z,99553.28
2023-05-01T15:28:21.795Z,99554.14
2023-05-01T15:30:52.514Z,99552.61
2023-05-01T15:33:21.490Z,99548.97
2023-05-01T15:35:59.043Z,99548.09
2023-05-01T15:38:28.748Z,99549.84
2023-05-01T15:40:59.729Z,99544.45
2023-05-01T15:43:31.251Z,99544.77
2023-05-01T15:46:00.605Z,99542.13
2023-05-01T15:48:54.972Z,99534.45
2023-05-01T15:51:26.223Z,99533.04
2023-05-01T15:54:04.045Z,99526.93
2023-05-01T15:56:37.385Z,99528.68
2023-05-01T15:59:22.242Z,99522.71
2023-05-01T16:01:57.926Z,99526.25
2023-05-01T16:04:26.275Z,99524.86
2023-05-01T16:06:55.333Z,99521.91
2023-05-01T16:09:59.462Z,99521.99
2023-05-01T16:12:29.070Z,99523.06
2023-05-01T16:15:02.937Z,99521.66
2023-05-01T16:17:55.998Z,99522.66
2023-05-01T16:20:35.722Z,99517.66
2023-05-01T16:23:04.370Z,99521.61
2023-05-01T16:25:33.026Z,99514.48
2023-05-01T16:28:09.682Z,99518.46
2023-05-01T16:30:45.932Z,99517.95
2023-05-01T16:33:19.530Z,99517.02
2023-05-01T16:35:49.687Z,99510.30
2023-05-01T16:38:18.907Z,99508.20
2023-05-01T16:40:52.934Z,99510.00
2023-05-01T16:43:25.627Z,99506.22
2023-05-01T16:45:54.605Z,99503.98
2023-05-01T16:48:24.667Z,99504.48
2023-05-01T16:50:53.309Z,99506.64
2023-05-01T16:53:22.402Z,99507.34
2023-05-01T16:55:52.479Z,99514.06
2023-05-01T16:58:21.204Z,99510.95
2023-05-01T17:00:49.867Z,99511.77
2023-05-01T17:03:21.411Z,99513.95
2023-05-01T17:05:55.701Z,99510.49
2023-05-01T17:08:25.223Z,99512.85
2023-05-01T17:10:54.468Z,99512.64
2023-05-01T17:13:26.214Z,99507.50
2023-05-01T17:16:05.268Z,99506.80
2023-05-01T17:18:34.999Z,99513.14
2023-05-01T17:21:03.727Z,99513.39
2023-05-01T17:23:34.948Z,99513.86
2023-05-01T17:26:04.432Z,99515.07
2023-05-01T17:28:35.431Z,99514.15
2023-05-01T17:31:03.826Z,99510.15
2023-05-01T17:33:35.845Z,99510.19
2023-05-01T17:36:13.264Z,99509.84
2023-05-01T17:38:45.006Z,99505.44
2023-05-01T17:41:15.988Z,99501.80
2023-05-01T17:43:45.900Z,99500.80
2023-05-01T17:46:17.127Z,99504.52
2023-05-01T17:48:45.712Z,99501.24
2023-05-01T17:51:15.499Z,99503.89
2023-05-01T17:53:54.452Z,99502.39
2023-05-01T17:56:26.004Z,99505.24
2023-05-01T17:58:55.293Z,99502.59
2023-05-01T18:01:55.838Z,99504.02
2023-05-01T18:05:37.297Z,99503.84
2023-05-01T18:08:09.348Z,99508.75
2023-05-01T18:10:37.962Z,99505.44
2023-05-01T18:13:07.119Z,99510.96
2023-05-01T18:15:35.961Z,99510.08
2023-05-01T18:18:04.520Z,99512.52
2023-05-01T18:20:36.093Z,99505.48
2023-05-01T18:23:08.206Z,99507.34
2023-05-01T18:25:39.602Z,99503.55
2023-05-01T18:28:18.762Z,99503.22
2023-05-01T18:30:49.759Z,99500.63
2023-05-01T18:33:18.874Z,99495.72
2023-05-01T18:35:50.412Z,99495.16
2023-05-01T18:38:19.251Z,99501.45
2023-05-01T18:40:50.438Z,99501.89
2023-05-01T18:43:18.832Z,99503.27
2023-05-01T18:45:47.199Z,99502.48
2023-05-01T18:48:16.117Z,99506.69
2023-05-01T18:50:51.452Z,99502.20
2023-05-01T18:53:29.854Z,99503.33
2023-05-01T18:55:58.198Z,99502.27
2023-05-01T18:58:26.914Z,99496.77
2023-05-01T19:01:15.945Z,99498.76
2023-05-01T19:03:44.170Z,99496.27
2023-05-01T19:06:13.448Z,99497.73
2023-05-01T19:08:45.166Z,99496.55
2023-05-01T19:11:19.527Z,99499.57
2023-05-01T19:13:51.110Z,99498.40
2023-05-01T19:16:19.917Z,99495.23
2023-05-01T19:18:48.710Z,99495.80
2023-05-01T19:21:17.782Z,99497.67
2023-05-01T19:23:47.601Z,99495.02
2023-05-01T19:26:16.113Z,99491.86
2023-05-01T19:28:44.963Z,99490.39
2023-05-01T19:31:16.452Z,99487.38
2023-05-01T19:33:48.204Z,99488.15
2023-05-01T19:36:16.859Z,99485.04
2023-05-01T19:38:45.836Z,99484.36
2023-05-01T19:41:15.564Z,99480.17
2023-05-01T19:43:44.110Z,99481.56
2023-05-01T19:46:12.535Z,99478.75
2023-05-01T19:48:44.704Z,99478.79
2023-05-01T19:51:13.040Z,99474.29
2023-05-01T19:53:44.469Z,99472.35
2023-05-01T19:56:20.663Z,99471.40
2023-05-01T19:58:54.002Z,99469.09
2023-05-01T20:01:22.915Z,99464.33
2023-05-01T20:03:51.695Z,99457.20
2023-05-01T20:06:20.297Z,99456.39
2023-05-01T20:08:55.094Z,99454.39
2023-05-01T20:11:23.981Z,99457.42
2023-05-01T20:13:52.563Z,99458.02
2023-05-01T20:16:30.341Z,99454.92
2023-05-01T20:18:59.845Z,99454.13
2023-05-01T20:21:29.020Z,99451.64
2023-05-01T20:23:57.823Z,99446.05
2023-05-01T20:26:26.404Z,99449.23
2023-05-01T20:28:57.265Z,99445.65
2023-05-01T20:31:26.313Z,99444.55
2023-05-01T20:33:55.157Z,99440.27
2023-05-01T20:36:25.349Z,99438.52
2023-05-01T20:38:57.853Z,99434.31
2023-05-01T20:41:28.208Z,99433.73
2023-05-01T20:43:56.731Z,99433.08
2023-05-01T20:46:25.174Z,99434.03
2023-05-01T20:48:56.783Z,99434.38
2023-05-01T20:51:27.580Z,99434.26
2023-05-01T20:53:56.269Z,99435.84
2023-05-01T20:56:24.870Z,99435.00
2023-05-01T20:58:53.347Z,99433.25
2023-05-01T21:01:21.754Z,99437.77
2023-05-01T21:03:50.220Z,99437.04
2023-05-01T21:06:19.353Z,99434.92
2023-05-01T21:08:48.772Z,99435.21
2023-05-01T21:11:17.815Z,99437.40
2023-05-01T21:13:46.407Z,99435.23
2023-05-01T21:16:16.672Z,99435.63
2023-05-01T21:18:45.090Z,99434.60
2023-05-01T21:21:15.961Z,99433.29
2023-05-01T21:23:49.103Z,99434.24
2023-05-01T21:26:19.953Z,99432.52
2023-05-01T21:28:48.327Z,99436.35
2023-05-01T21:31:16.925Z,99438.40
2023-05-01T21:33:45.958Z,99439.77
2023-05-01T21:36:18.204Z,99440.66
2023-05-01T21:38:46.978Z,99440.21
2023-05-01T21:41:16.165Z,99438.24
2023-05-01T21:43:44.720Z,99439.38
2023-05-01T21:46:18.659Z,99435.20
2023-05-01T21:48:51.749Z,99433.17
2023-05-01T21:51:27.301Z,99434.64
2023-05-01T21:54:01.658Z,99433.54
2023-05-01T21:56:31.674Z,99431.62
2023-05-01T21:59:05.844Z,99431.00
2023-05-01T22:01:34.699Z,99431.59
2023-05-01T22:04:04.926Z,99429.08
2023-05-01T22:06:34.585Z,99432.67
2023-05-01T22:09:08.517Z,99434.20
2023-05-01T22:11:37.461Z,99434.08
2023-05-01T22:14:08.252Z,99433.43
2023-05-01T22:16:36.815Z,99431.46
2023-05-01T22:19:06.509Z,99431.92
2023-05-01T22:21:35.503Z,99432.81
2023-05-01T22:24:13.483Z,99431.96
2023-05-01T22:26:42.055Z,99431.24
2023-05-01T22:29:11.158Z,99430.12
2023-05-01T22:31:39.590Z,99432.15
2023-05-01T22:34:09.167Z,99432.17
2023-05-01T22:36:37.561Z,99428.80
2023-05-01T22:39:09.428Z,99426.56
2023-05-01T22:41:38.565Z,99427.42
2023-05-01T22:44:06.907Z,99427.05
2023-05-01T22:46:35.952Z,99424.29
2023-05-01T22:49:04.405Z,99423.55
2023-05-01T22:51:32.810Z,99422.20
2023-05-01T22:54:01.527Z,99421.48
2023-05-01T22:56:30.832Z,99420.73
2023-05-01T22:58:59.665Z,99420.67
2023-05-01T23:01:28.104Z,99425.42
2023-05-01T23:03:57.367Z,99424.19
2023-05-01T23:06:26.422Z,99419.39
2023-05-01T23:08:55.062Z,99420.77
2023-05-01T23:11:23.598Z,99421.40
2023-05-01T23:14:01.825Z,99419.73
2023-05-01T23:16:37.826Z,99419.27
2023-05-01T23:19:18.628Z,99419.91
2023-05-01T23:21:50.462Z,99419.09
2023-05-01T23:24:21.448Z,99417.27
2023-05-01T23:26:50.122Z,99413.61
2023-05-01T23:29:18.780Z,99412.10
2023-05-01T23:31:48.828Z,99411.14
2023-05-01T23:34:18.035Z,99409.06
2023-05-01T23:36:47.501Z,99404.36
2023-05-01T23:39:16.678Z,99403.29
2023-05-01T23:41:47.266Z,99405.67
2023-05-01T23:44:15.864Z,99398.48
2023-05-01T23:46:47.758Z,99395.71
2023-05-01T23:49:19.515Z,99395.41
2023-05-01T23:51:55.418Z,99391.20
2023-05-01T23:54:24.051Z,99390.29
2023-05-01T23:56:52.670Z,99391.91
2023-05-01T23:59:21.177Z,99391.20
